Other Surface Observations
Issued by NWS Missoula, MT

Home | Current Version | Previous Version | Text Only | Print | Product List | Glossary On
Versions: 1 2 3 4 5 6 7 8 9 10 11 12 13 14 15 16 17 18 19 20 21 22 23 24 25 26 27 28 29 30 31 32 33 34 35 36 37 38 39 40 41 42 43 44 45 46 47 48 49 50
000
SXUS55 KMSO 310004
OSOMSO
MONTANA AWOS SUMMARY
NATIONAL WEATHER SERVICE MISSOULA MT
503 PM MST FRI JAN 30 2015

Montana AWOS Reports

ROUNDUP     |KRPX 302355Z AUTO 00000KT 40SM 07/M11 A3003 RMK AO1 T00671110
TWIN BRIDGES|K7S1 302355Z AUTO 00000KT 40SM 05/M09 A3011 RMK AO1 T00501088
SCOBEY      |K9S2 302355Z AUTO 00000KT 25SM 00/M06 A3015 RMK AO1 T00001055




USA.gov is the U.S. government's official web portal to all federal, state and local government web resources and services.